createdAt,value
2022-12-18T00:00:34.389Z,10.45
2022-12-18T00:03:01.202Z,12.10
2022-12-18T00:05:27.779Z,11.27
2022-12-18T00:07:55.447Z,39.50
2022-12-18T00:10:21.927Z,14.90
2022-12-18T00:12:48.454Z,10.07
2022-12-18T00:15:14.997Z,11.63
2022-12-18T00:17:45.438Z,10.35
2022-12-18T00:20:13.474Z,10.10
2022-12-18T00:22:39.962Z,9.95
2022-12-18T00:25:06.791Z,10.05
2022-12-18T00:27:33.321Z,8.03
2022-12-18T00:29:59.815Z,9.88
2022-12-18T00:32:26.396Z,11.02
2022-12-18T00:34:52.884Z,42.55
2022-12-18T00:37:20.417Z,16.63
2022-12-18T00:39:49.121Z,10.65
2022-12-18T00:42:34.114Z,21.33
2022-12-18T00:45:00.622Z,11.73
2022-12-18T00:47:27.144Z,10.75
2022-12-18T00:49:53.631Z,10.15
2022-12-18T00:52:20.187Z,10.30
2022-12-18T00:54:46.677Z,10.75
2022-12-18T01:23:12.537Z,10.70
2022-12-18T01:25:39.414Z,10.10
2022-12-18T01:28:08.787Z,9.27
2022-12-18T01:30:35.607Z,9.63
2022-12-18T01:33:02.254Z,9.20
2022-12-18T01:35:28.854Z,10.20
2022-12-18T01:37:58.091Z,8.65
2022-12-18T01:40:25.119Z,10.48
2022-12-18T01:42:53.567Z,7.73
2022-12-18T01:45:20.268Z,10.15
2022-12-18T01:48:01.708Z,8.90
2022-12-18T01:50:35.698Z,10.38
2022-12-18T01:53:11.516Z,8.48
2022-12-18T01:55:46.293Z,9.98
2022-12-18T01:58:13.103Z,9.73
2022-12-18T02:00:40.088Z,9.20
2022-12-18T02:03:07.266Z,7.97
2022-12-18T02:06:00.658Z,8.93
2022-12-18T02:08:37.108Z,8.75
2022-12-18T02:11:15.210Z,10.07
2022-12-18T02:13:57.912Z,9.93
2022-12-18T02:16:37.644Z,10.18
2022-12-18T02:19:17.746Z,8.80
2022-12-18T02:21:56.097Z,9.30
2022-12-18T02:24:31.026Z,9.80
2022-12-18T02:27:08.638Z,9.38
2022-12-18T02:29:45.726Z,10.88
2022-12-18T02:32:17.999Z,8.85
2022-12-18T02:34:45.691Z,10.77
2022-12-18T02:37:15.672Z,10.77
2022-12-18T02:39:46.440Z,9.80
2022-12-18T02:42:13.502Z,11.05
2022-12-18T02:44:49.105Z,8.33
2022-12-18T02:47:17.734Z,11.57
2022-12-18T02:49:50.122Z,11.75
2022-12-18T02:52:22.301Z,11.77
2022-12-18T02:55:17.904Z,11.20
2022-12-18T02:57:53.115Z,10.55
2022-12-18T03:00:33.023Z,11.60
2022-12-18T03:03:30.975Z,11.85
2022-12-18T03:06:04.814Z,12.18
2022-12-18T03:08:39.166Z,13.48
2022-12-18T03:11:13.645Z,11.07
2022-12-18T03:13:50.396Z,12.27
2022-12-18T03:16:23.890Z,11.57
2022-12-18T03:19:01.069Z,11.45
2022-12-18T03:21:33.504Z,12.50
2022-12-18T03:24:02.021Z,12.48
2022-12-18T03:26:30.759Z,11.52
2022-12-18T03:29:05.943Z,11.52
2022-12-18T03:31:33.914Z,12.43
2022-12-18T03:34:04.869Z,11.93
2022-12-18T03:36:31.508Z,11.07
2022-12-18T03:38:58.041Z,12.15
2022-12-18T03:41:34.922Z,12.05
2022-12-18T04:03:50.405Z,11.32
2022-12-18T04:06:17.987Z,12.60
2022-12-18T04:08:45.315Z,12.25
2022-12-18T04:11:11.924Z,10.57
2022-12-18T04:13:40.471Z,11.48
2022-12-18T04:16:07.799Z,11.82
2022-12-18T04:18:34.535Z,12.43
2022-12-18T04:21:01.119Z,12.18
2022-12-18T04:23:27.676Z,11.23
2022-12-18T04:25:54.187Z,10.57
2022-12-18T04:28:21.305Z,10.77
2022-12-18T04:30:48.445Z,11.40
2022-12-18T04:33:17.942Z,10.80
2022-12-18T04:35:44.592Z,10.68
2022-12-18T04:38:11.552Z,10.07
2022-12-18T04:40:38.725Z,13.63
2022-12-18T04:43:05.906Z,11.45
2022-12-18T04:45:33.238Z,8.40
2022-12-18T04:48:00.686Z,10.70
2022-12-18T04:50:27.989Z,11.07
2022-12-18T04:52:54.647Z,10.23
2022-12-18T04:55:21.717Z,10.35
2022-12-18T04:57:48.192Z,9.87
2022-12-18T05:00:16.484Z,9.45
2022-12-18T05:02:43.094Z,11.23
2022-12-18T05:05:10.019Z,10.43
2022-12-18T05:07:36.774Z,9.98
2022-12-18T05:10:03.799Z,10.02
2022-12-18T05:12:32.178Z,9.70
2022-12-18T05:14:58.717Z,10.68
2022-12-18T05:17:25.244Z,9.57
2022-12-18T05:19:51.831Z,10.10
2022-12-18T05:22:18.305Z,9.88
2022-12-18T05:24:44.868Z,10.20
2022-12-18T05:27:11.410Z,10.75
2022-12-18T05:29:37.889Z,10.32
2022-12-18T05:32:04.638Z,9.88
2022-12-18T05:34:31.462Z,9.30
2022-12-18T05:36:57.898Z,9.85
2022-12-18T05:39:24.414Z,9.60
2022-12-18T05:41:50.977Z,10.40
2022-12-18T05:44:17.499Z,10.52
2022-12-18T05:46:44.297Z,9.35
2022-12-18T05:49:10.894Z,7.47
2022-12-18T05:51:37.523Z,10.27
2022-12-18T05:54:04.127Z,9.05
2022-12-18T05:56:32.377Z,10.73
2022-12-18T05:58:58.863Z,9.07
2022-12-18T06:01:27.542Z,9.90
2022-12-18T06:03:54.797Z,10.13
2022-12-18T06:06:24.804Z,9.65
2022-12-18T06:08:52.308Z,9.93
2022-12-18T06:11:22.348Z,10.23
2022-12-18T06:13:58.673Z,11.85
2022-12-18T06:16:26.539Z,10.60
2022-12-18T06:18:53.077Z,9.85
2022-12-18T06:21:19.727Z,10.60
2022-12-18T06:23:46.434Z,11.75
2022-12-18T06:26:13.805Z,11.07
2022-12-18T06:28:40.649Z,11.48
2022-12-18T06:31:08.160Z,11.00
2022-12-18T06:33:36.067Z,10.27
2022-12-18T06:38:30.767Z,10.88
2022-12-18T06:40:57.593Z,10.90
2022-12-18T06:43:24.079Z,11.02
2022-12-18T06:45:53.785Z,10.52
2022-12-18T06:48:21.009Z,12.05
2022-12-18T06:50:47.965Z,11.63
2022-12-18T06:53:14.803Z,9.90
2022-12-18T06:55:41.268Z,12.60
2022-12-18T06:58:08.158Z,12.02
2022-12-18T07:00:35.077Z,9.15
2022-12-18T07:03:01.624Z,11.63
2022-12-18T07:05:28.176Z,11.60
2022-12-18T07:07:54.690Z,11.88
2022-12-18T07:10:21.318Z,12.63
2022-12-18T07:12:47.926Z,11.55
2022-12-18T07:15:15.928Z,13.02
2022-12-18T07:17:42.464Z,11.98
2022-12-18T07:20:09.838Z,12.40
2022-12-18T07:22:36.344Z,11.45
2022-12-18T07:25:02.954Z,10.85
2022-12-18T07:27:29.560Z,9.80
2022-12-18T07:33:40.565Z,13.65
2022-12-18T07:36:10.773Z,12.77
2022-12-18T07:38:38.137Z,12.63
2022-12-18T07:41:09.744Z,9.50
2022-12-18T07:43:37.660Z,10.02
2022-12-18T07:46:05.571Z,11.05
2022-12-18T07:48:32.730Z,13.90
2022-12-18T07:51:05.579Z,15.05
2022-12-18T07:53:34.415Z,9.63
2022-12-18T07:56:31.469Z,11.18
2022-12-18T07:58:50.798Z,14.10
2022-12-18T08:01:17.492Z,12.80
2022-12-18T08:03:44.247Z,7.47
2022-12-18T08:06:11.081Z,11.88
2022-12-18T08:08:38.075Z,9.35
2022-12-18T08:11:04.839Z,11.47
2022-12-18T08:13:31.376Z,16.88
2022-12-18T08:16:03.702Z,13.27
2022-12-18T08:18:30.492Z,11.48
2022-12-18T08:20:57.049Z,11.02
2022-12-18T08:23:25.581Z,10.05
2022-12-18T08:25:55.097Z,6.47
2022-12-18T08:28:21.614Z,11.27
2022-12-18T08:30:53.153Z,7.70
2022-12-18T08:33:19.847Z,9.80
2022-12-18T08:35:46.456Z,11.18
2022-12-18T08:38:12.980Z,11.38
2022-12-18T08:40:42.610Z,10.98
2022-12-18T08:43:30.151Z,9.48
2022-12-18T08:45:56.725Z,10.40
2022-12-18T08:48:23.706Z,10.57
2022-12-18T08:51:00.475Z,8.87
2022-12-18T08:53:32.707Z,9.63
2022-12-18T08:56:01.889Z,15.07
2022-12-18T08:58:28.445Z,9.70
2022-12-18T09:00:55.111Z,10.65
2022-12-18T09:03:23.667Z,9.55
2022-12-18T09:05:50.361Z,9.95
2022-12-18T09:08:17.037Z,10.18
2022-12-18T09:10:45.373Z,10.43
2022-12-18T09:13:12.896Z,9.70
2022-12-18T09:15:43.896Z,8.93
2022-12-18T09:18:10.807Z,11.85
2022-12-18T09:20:37.917Z,8.65
2022-12-18T09:23:05.514Z,11.87
2022-12-18T09:25:36.826Z,8.75
2022-12-18T09:28:05.779Z,7.53
2022-12-18T09:30:34.387Z,9.38
2022-12-18T09:33:02.621Z,10.60
2022-12-18T09:35:29.165Z,8.73
2022-12-18T09:37:55.875Z,11.38
2022-12-18T09:40:26.460Z,10.23
2022-12-18T09:42:59.911Z,9.90
2022-12-18T09:45:26.536Z,10.32
2022-12-18T09:47:56.078Z,8.23
2022-12-18T09:50:30.990Z,7.90
2022-12-18T09:53:03.903Z,6.88
2022-12-18T09:55:39.207Z,8.75
2022-12-18T09:58:34.675Z,20.45
2022-12-18T10:01:01.213Z,10.75
2022-12-18T10:03:27.954Z,8.38
2022-12-18T10:06:06.939Z,10.02
2022-12-18T10:09:00.983Z,8.63
2022-12-18T10:11:42.402Z,8.43
2022-12-18T10:14:40.103Z,9.05
2022-12-18T10:17:35.541Z,6.70
2022-12-18T10:20:14.513Z,7.55
2022-12-18T10:23:12.881Z,6.28
2022-12-18T10:26:00.658Z,5.97
2022-12-18T10:28:28.508Z,7.55
2022-12-18T10:30:55.131Z,8.52
2022-12-18T10:33:24.855Z,14.75
2022-12-18T10:35:52.414Z,6.95
2022-12-18T10:38:24.342Z,6.22
2022-12-18T10:41:04.765Z,6.80
2022-12-18T10:43:40.014Z,7.55
2022-12-18T10:46:10.374Z,11.63
2022-12-18T10:48:42.559Z,10.18
2022-12-18T10:51:12.712Z,8.50
2022-12-18T10:53:42.787Z,7.63
2022-12-18T10:56:10.099Z,7.57
2022-12-18T10:58:46.750Z,8.70
2022-12-18T11:01:14.911Z,8.05
2022-12-18T11:06:19.408Z,9.35
2022-12-18T11:11:25.901Z,7.20
2022-12-18T11:14:43.516Z,8.82
2022-12-18T11:17:27.457Z,6.07
2022-12-18T11:20:08.133Z,7.85
2022-12-18T11:22:37.160Z,6.07
2022-12-18T11:25:32.590Z,9.75
2022-12-18T11:28:01.552Z,19.27
2022-12-18T11:30:32.482Z,8.98
2022-12-18T11:33:20.318Z,9.52
2022-12-18T11:35:57.607Z,7.10
2022-12-18T11:38:53.266Z,7.78
2022-12-18T11:41:53.504Z,8.63
2022-12-18T11:44:30.759Z,12.20
2022-12-18T11:47:06.935Z,9.10
2022-12-18T11:49:37.293Z,8.85
2022-12-18T11:55:39.188Z,11.93
2022-12-18T12:04:52.119Z,9.30
2022-12-18T12:13:52.324Z,6.38
2022-12-18T12:16:33.699Z,12.10
2022-12-18T12:22:34.496Z,12.25
2022-12-18T12:25:21.997Z,9.80
2022-12-18T12:28:13.672Z,11.32
2022-12-18T12:31:04.454Z,10.82
2022-12-18T12:34:02.285Z,10.43
2022-12-18T12:36:54.197Z,10.73
2022-12-18T12:39:26.114Z,13.73
2022-12-18T12:42:15.338Z,11.80
2022-12-18T12:45:04.603Z,9.88
2022-12-18T12:47:41.936Z,11.82
2022-12-18T12:50:16.099Z,19.38
2022-12-18T12:52:51.723Z,9.70
2022-12-18T12:55:31.395Z,13.35
2022-12-18T12:58:53.901Z,13.02
2022-12-18T13:01:39.489Z,18.20
2022-12-18T13:04:43.483Z,11.68
2022-12-18T13:07:27.993Z,9.80
2022-12-18T13:10:27.056Z,13.48
2022-12-18T13:13:00.835Z,11.73
2022-12-18T13:15:52.361Z,12.93
2022-12-18T13:18:20.659Z,10.02
2022-12-18T13:21:05.049Z,15.43
2022-12-18T13:23:37.707Z,11.90
2022-12-18T13:26:07.334Z,19.50
2022-12-18T13:28:46.477Z,14.73
2022-12-18T13:31:42.689Z,14.43
2022-12-18T13:34:29.670Z,12.05
2022-12-18T13:37:17.853Z,12.20
2022-12-18T13:39:44.702Z,11.18
2022-12-18T13:42:31.446Z,10.43
2022-12-18T13:44:58.910Z,10.87
2022-12-18T13:47:44.444Z,14.13
2022-12-18T13:50:29.714Z,11.73
2022-12-18T13:53:02.797Z,8.88
2022-12-18T13:55:29.887Z,13.73
2022-12-18T13:58:18.069Z,11.23
2022-12-18T14:00:45.948Z,11.77
2022-12-18T14:03:29.616Z,12.00
2022-12-18T14:06:11.720Z,12.60
2022-12-18T14:08:41.053Z,12.23
2022-12-18T14:11:18.810Z,10.88
2022-12-18T14:13:48.900Z,21.35
2022-12-18T14:16:16.907Z,24.52
2022-12-18T14:18:50.591Z,14.20
2022-12-18T14:21:23.355Z,11.73
2022-12-18T14:24:03.362Z,32.53
2022-12-18T14:26:31.753Z,11.00
2022-12-18T14:29:21.561Z,19.33
2022-12-18T14:32:08.393Z,11.10
2022-12-18T14:34:37.707Z,11.05
2022-12-18T14:37:05.386Z,13.77
2022-12-18T14:39:32.011Z,12.75
2022-12-18T14:41:58.570Z,14.13
2022-12-18T14:44:28.592Z,17.20
2022-12-18T14:47:03.817Z,16.10
2022-12-18T14:49:36.387Z,11.48
2022-12-18T14:52:06.942Z,11.07
2022-12-18T14:54:38.202Z,14.20
2022-12-18T14:57:26.000Z,15.48
2022-12-18T14:59:52.662Z,12.98
2022-12-18T15:02:27.428Z,15.30
2022-12-18T15:05:23.558Z,15.43
2022-12-18T15:07:59.682Z,13.10
2022-12-18T15:10:32.422Z,12.75
2022-12-18T15:13:18.848Z,16.00
2022-12-18T15:15:46.533Z,12.75
2022-12-18T15:18:17.897Z,14.00
2022-12-18T15:20:53.119Z,16.40
2022-12-18T15:26:06.319Z,12.38
2022-12-18T15:28:37.973Z,14.85
2022-12-18T15:31:14.771Z,14.85
2022-12-18T15:33:53.397Z,12.90
2022-12-18T15:36:26.311Z,19.20
2022-12-18T15:38:56.167Z,16.08
2022-12-18T15:41:35.830Z,13.60
2022-12-18T15:44:03.998Z,15.95
2022-12-18T15:49:12.011Z,16.88
2022-12-18T15:51:40.133Z,14.02
2022-12-18T15:54:13.986Z,14.63
2022-12-18T15:57:02.188Z,17.30
2022-12-18T15:59:30.496Z,16.73
2022-12-18T16:01:57.325Z,17.63
2022-12-18T16:07:14.771Z,15.90
2022-12-18T16:09:42.990Z,25.27
2022-12-18T16:12:19.047Z,17.27
2022-12-18T16:14:46.524Z,20.65
2022-12-18T16:17:14.815Z,16.15
2022-12-18T16:22:25.009Z,17.52
2022-12-18T16:27:33.759Z,18.23
2022-12-18T16:30:00.709Z,17.95
2022-12-18T16:32:35.908Z,14.87
2022-12-18T16:35:02.459Z,16.08
2022-12-18T16:37:30.534Z,17.73
2022-12-18T16:39:57.033Z,15.82
2022-12-18T16:42:23.568Z,17.67
2022-12-18T16:44:50.738Z,16.67
2022-12-18T16:47:18.206Z,19.03
2022-12-18T16:52:29.939Z,17.40
2022-12-18T16:57:38.321Z,20.70
2022-12-18T17:02:46.719Z,19.63
2022-12-18T17:05:14.464Z,22.73
2022-12-18T17:07:41.109Z,21.45
2022-12-18T17:12:51.360Z,20.17
2022-12-18T17:17:58.210Z,20.55
2022-12-18T17:20:24.696Z,27.02
2022-12-18T17:25:32.732Z,17.55
2022-12-18T17:30:43.017Z,20.77
2022-12-18T17:35:54.148Z,19.20
2022-12-18T17:38:20.715Z,23.60
2022-12-18T17:40:48.398Z,19.90
2022-12-18T17:43:17.461Z,21.33
2022-12-18T17:45:43.974Z,22.88
2022-12-18T17:48:12.999Z,14.50
2022-12-18T17:50:39.731Z,22.45
2022-12-18T17:58:41.159Z,26.45
2022-12-18T18:03:57.914Z,15.77
2022-12-18T18:09:11.185Z,23.70
2022-12-18T18:12:02.452Z,21.73
2022-12-18T18:14:33.637Z,17.88
2022-12-18T18:17:04.978Z,20.08
2022-12-18T18:22:12.660Z,19.10
2022-12-18T18:24:40.420Z,23.48
2022-12-18T18:29:48.998Z,14.77
2022-12-18T18:34:55.846Z,21.05
2022-12-18T18:40:05.801Z,20.25
2022-12-18T18:42:32.253Z,19.02
2022-12-18T18:45:00.188Z,20.77
2022-12-18T18:49:58.209Z,23.10
2022-12-18T18:52:26.169Z,23.35
2022-12-18T19:01:30.310Z,21.27
2022-12-18T19:03:57.046Z,22.85
2022-12-18T19:06:37.079Z,18.17
2022-12-18T19:09:07.129Z,23.73
2022-12-18T19:11:52.247Z,19.05
2022-12-18T19:14:19.115Z,24.33
2022-12-18T19:16:49.724Z,25.85
2022-12-18T19:19:21.126Z,22.92
2022-12-18T19:21:50.770Z,22.73
2022-12-18T19:26:58.243Z,20.75
2022-12-18T19:29:25.233Z,19.55
2022-12-18T19:34:32.194Z,20.17
2022-12-18T19:39:40.407Z,15.23
2022-12-18T19:44:48.746Z,19.25
2022-12-18T19:49:50.824Z,23.10
2022-12-18T19:52:17.374Z,22.48
2022-12-18T19:54:43.925Z,21.65
2022-12-18T19:59:56.495Z,17.20
2022-12-18T20:02:23.405Z,15.52
2022-12-18T20:04:51.589Z,23.33
2022-12-18T20:07:19.249Z,17.52
2022-12-18T20:12:32.218Z,21.35
2022-12-18T20:17:39.517Z,19.05
2022-12-18T20:22:49.308Z,17.98
2022-12-18T20:27:58.261Z,22.33
2022-12-18T20:30:24.739Z,20.50
2022-12-18T20:32:58.948Z,20.15
2022-12-18T20:35:28.329Z,22.63
2022-12-18T20:37:55.939Z,16.20
2022-12-18T20:40:26.645Z,20.38
2022-12-18T20:42:53.210Z,22.70
2022-12-18T20:45:19.813Z,21.77
2022-12-18T20:50:28.376Z,15.05
2022-12-18T20:55:46.305Z,19.35
2022-12-18T20:58:13.189Z,18.10
2022-12-18T21:00:40.891Z,22.63
2022-12-18T21:03:09.100Z,20.10
2022-12-18T21:08:18.350Z,23.20
2022-12-18T21:13:25.202Z,17.95
2022-12-18T21:18:35.104Z,19.98
2022-12-18T21:23:44.278Z,17.92
